Latest Weather Observations for Edinburgh

IDS60901

Issued at 2:21 pm CST Sunday 24 July 2016 (issued every 10 minutes, with the page automatically refreshed every 10 minutes)

About weather observations | Map of Adelaide area stations | Latest observations for Adelaide area | Other Formats
Station Details ID: 023083 Name: EDINBURGH RAAF Lat: -34.71 Lon: 138.62 Height: 16.54 m
Data from the previous 72 hours. | See also: Recent months at Edinburgh
Date/Time
CST
Temp
°C
App
Temp
°C
Dew
Point
°C
Rel
Hum
%
Delta-T
°C
Wind Press
QNH
hPa
Press
MSL
hPa
Rain since
9am
mm
Dir  Spd
km/h
Gust
km/h
Spd
kts
Gust
kts
24/02:20pm 10.3 0.2 5.7 73 2.1 W 48 69 26 37 1008.8 1008.8 5.0
24/02:00pm 12.4 3.2 5.6 63 3.2 WNW 43 54 23 29 1008.4 1008.5 5.0
24/01:32pm 12.3 3.2 5.9 65 3.0 WNW 43 61 23 33 1008.4 1008.5 5.0
24/01:30pm 12.3 3.0 6.1 66 2.9 WNW 44 61 24 33 1008.4 1008.5 5.0
24/01:00pm 11.4 2.9 7.1 75 2.1 WNW 41 56 22 30 1008.7 1008.7 5.0
24/12:30pm 10.8 3.7 7.9 82 1.4 WNW 35 46 19 25 1008.9 1008.9 5.0
24/12:28pm 10.4 3.0 6.9 79 1.7 WNW 35 48 19 26 1008.8 1008.8 5.0
24/12:10pm 9.0 1.0 5.7 80 1.5 NW 37 70 20 38 1009.2 1009.2 4.4
24/12:00pm 10.2 2.9 7.1 81 1.5 NW 35 48 19 26 1009.0 1009.0 3.8
24/11:30am 9.6 4.4 7.4 86 1.0 NW 24 33 13 18 1009.6 1009.6 3.8
24/11:00am 8.6 2.9 6.7 88 0.9 NW 26 35 14 19 1009.7 1009.7 3.8
24/10:30am 8.4 1.5 6.5 88 0.9 NW 32 43 17 23 1009.7 1009.7 3.0
24/10:00am 8.6 -0.4 6.4 86 1.0 NNW 43 61 23 33 1009.6 1009.6 2.0
24/09:50am 8.7 0.8 6.2 84 1.1 NNW 37 65 20 35 1009.3 1009.3 1.6
24/09:30am 9.2 1.7 6.3 82 1.3 NNW 35 46 19 25 1009.0 1009.0 0.4
24/09:00am 9.8 4.0 6.2 78 1.7 N 26 37 14 20 1008.9 1008.9 1.0
24/08:30am 9.4 4.4 6.3 81 1.4 N 22 32 12 17 1009.1 1009.1 1.0
24/08:00am 8.8 2.9 5.9 82 1.3 N 26 35 14 19 1009.4 1009.4 1.0
24/07:30am 9.2 3.3 5.9 80 1.5 N 26 37 14 20 1009.5 1009.5 1.0
24/07:00am 8.7 3.1 5.6 81 1.4 N 24 35 13 19 1009.7 1009.7 1.0
24/06:30am 8.6 3.8 5.5 81 1.4 N 20 28 11 15 1009.9 1009.9 1.0
24/06:00am 8.1 3.5 5.4 83 1.2 N 19 24 10 13 1010.0 1010.0 1.0
24/05:30am 7.8 3.5 5.1 83 1.2 N 17 22 9 12 1010.2 1010.2 1.0
24/05:00am 7.1 2.8 5.3 88 0.8 NNE 17 20 9 11 1010.4 1010.4 1.0
24/04:30am 7.0 2.3 5.3 89 0.8 NNE 19 26 10 14 1010.8 1010.8 1.0
24/04:00am 5.9 1.8 4.5 91 0.6 NE 15 19 8 10 1011.3 1011.3 1.0
24/03:30am 5.3 1.1 4.0 91 0.5 NE 15 17 8 9 1011.6 1011.6 1.0
24/03:00am 5.0 1.1 3.5 90 0.6 NE 13 17 7 9 1011.9 1011.9 1.0
24/02:30am 5.4 1.3 4.1 91 0.6 NE 15 19 8 10 1012.4 1012.4 1.0
24/02:00am 5.2 1.0 3.9 91 0.5 NE 15 17 8 9 1012.9 1012.9 1.0
24/01:30am 5.1 1.3 3.9 92 0.5 NE 13 17 7 9 1013.3 1013.3 1.0
24/01:00am 5.0 1.5 3.7 91 0.5 NNE 11 15 6 8 1014.0 1014.0 1.0
24/12:30am 5.1 1.3 3.8 91 0.5 NNE 13 15 7 8 1014.4 1014.4 1.0
24/12:00am 5.4 2.0 4.2 92 0.5 NE 11 13 6 7 1014.8 1014.8 1.0
 
Date/Time
CST
Temp
°C
App
Temp
°C
Dew
Point
°C
Rel
Hum
%
Delta-T
°C
Wind Press
QNH
hPa
Press
MSL
hPa
Rain since
9am
mm
Dir  Spd
km/h
Gust
km/h
Spd
kts
Gust
kts
23/11:30pm 5.7 2.4 4.5 92 0.5 NE 11 13 6 7 1014.8 1014.8 1.0
23/11:00pm 5.4 2.0 4.1 91 0.6 NE 11 15 6 8 1015.3 1015.3 1.0
23/10:30pm 5.8 2.1 4.4 91 0.6 NNE 13 15 7 8 1015.6 1015.6 1.0
23/10:00pm 5.9 2.2 4.4 90 0.6 NE 13 15 7 8 1015.6 1015.6 0.8
23/09:30pm 6.0 2.7 4.5 90 0.6 NE 11 13 6 7 1015.6 1015.6 0.8
23/09:00pm 6.5 2.9 4.8 89 0.7 NNE 13 15 7 8 1015.8 1015.8 0.8
23/08:30pm 7.7 5.0 5.8 88 0.9 NNE 9 11 5 6 1015.8 1015.8 0.8
23/08:19pm 8.1 6.1 6.2 88 0.9 N 6 9 3 5 1015.8 1015.8 0.8
23/08:00pm 8.6 5.4 6.7 88 0.9 W 13 17 7 9 1016.1 1016.1 0.4
23/07:56pm 8.7 5.5 6.8 88 0.9 WNW 13 17 7 9 1016.1 1016.1 0.2
23/07:30pm 7.8 4.8 5.9 88 0.9 NNW 11 13 6 7 1015.9 1015.9 0.0
23/07:00pm 6.9 4.0 4.7 86 1.0 N 9 11 5 6 1015.9 1015.9 0.0
23/06:30pm 7.7 4.5 5.2 84 1.1 NW 11 11 6 6 1015.8 1015.8 0.0
23/06:00pm 8.6 5.9 5.4 80 1.4 NW 9 13 5 7 1015.4 1015.4 0.0
23/05:30pm 9.4 6.0 5.8 78 1.6 WNW 13 15 7 8 1015.4 1015.4 0.0
23/05:00pm 10.1 6.1 5.1 71 2.3 WNW 15 17 8 9 1015.3 1015.3 0.0
23/04:30pm 11.3 6.6 5.2 66 2.8 WNW 19 22 10 12 1015.3 1015.3 0.0
23/04:00pm 11.2 6.3 5.1 66 2.8 W 20 24 11 13 1015.3 1015.3 0.0
23/03:30pm 11.8 7.5 5.2 64 3.0 WNW 17 24 9 13 1015.3 1015.3 0.0
23/03:00pm 12.6 8.1 4.1 56 3.8 WNW 17 22 9 12 1015.2 1015.2 0.0
23/02:30pm 12.5 7.7 5.4 62 3.3 W 20 24 11 13 1015.1 1015.1 0.0
23/02:00pm 12.2 7.4 4.7 60 3.4 W 19 24 10 13 1015.0 1015.0 0.0
23/01:30pm 12.2 7.4 4.7 60 3.4 W 19 24 10 13 1015.1 1015.1 0.0
23/01:00pm 13.0 8.2 5.4 60 3.5 WSW 20 28 11 15 1015.1 1015.1 0.0
23/12:30pm 12.8 7.6 3.7 54 4.1 SW 20 28 11 15 1015.1 1015.1 0.0
23/12:00pm 12.8 7.4 4.5 57 3.8 WSW 22 28 12 15 1015.2 1015.2 0.0
23/11:30am 12.5 7.6 5.0 60 3.5 SW 20 26 11 14 1015.5 1015.5 0.0
23/11:00am 11.5 6.8 6.0 69 2.6 SSW 20 28 11 15 1015.5 1015.5 0.0
23/10:30am 11.2 6.4 5.7 69 2.5 SW 20 28 11 15 1015.3 1015.3 0.0
23/10:00am 11.1 6.4 6.0 71 2.4 SW 20 26 11 14 1015.0 1015.0 0.0
23/09:30am 11.1 8.6 6.6 74 2.1 SSW 9 15 5 8 1014.9 1014.9 0.0
23/09:00am 10.7 8.8 6.5 75 2.0 SE 6 9 3 5 1014.5 1014.5 7.8
23/08:30am 8.8 6.2 6.3 84 1.1 SW 9 13 5 7 1013.9 1013.9 7.8
23/08:00am 9.1 6.2 6.4 83 1.2 SW 11 15 6 8 1013.3 1013.3 7.8
23/07:30am 8.8 5.1 6.1 83 1.2 SW 15 19 8 10 1012.9 1012.9 7.8
23/07:00am 8.0 4.5 5.6 85 1.1 SW 13 19 7 10 1012.3 1012.3 7.8
23/06:30am 8.5 4.4 6.1 85 1.1 SW 17 22 9 12 1011.7 1011.7 7.8
23/06:00am 9.1 5.1 6.7 85 1.1 SW 17 22 9 12 1011.3 1011.3 7.8
23/05:52am 9.4 4.5 7.0 85 1.1 SW 22 32 12 17 1011.2 1011.2 7.8
23/05:35am 9.6 4.1 7.4 86 1.0 WSW 26 41 14 22 1011.1 1011.1 7.6
23/05:30am 9.9 5.2 7.7 86 1.1 WSW 22 30 12 16 1011.0 1011.0 7.2
23/05:00am 8.9 5.0 6.9 87 0.9 WSW 17 22 9 12 1010.6 1010.6 7.2
23/04:30am 9.1 4.2 6.7 85 1.1 WSW 22 32 12 17 1010.1 1010.1 7.2
23/04:00am 9.5 4.6 7.1 85 1.1 WSW 22 28 12 15 1009.6 1009.6 7.2
23/03:30am 9.4 3.0 7.0 85 1.1 WSW 30 37 16 20 1009.3 1009.3 7.2
23/03:00am 9.6 3.3 7.2 85 1.1 WSW 30 37 16 20 1009.3 1009.3 7.2
23/02:30am 9.9 3.9 7.2 83 1.3 W 28 37 15 20 1009.4 1009.4 7.0
23/02:00am 10.4 3.9 6.7 78 1.7 W 30 39 16 21 1009.3 1009.3 6.6
23/01:30am 10.4 4.0 7.1 80 1.6 WSW 30 39 16 21 1009.4 1009.4 6.6
23/01:00am 11.0 3.8 5.7 70 2.4 W 33 44 18 24 1009.0 1009.0 6.4
23/12:30am 10.9 3.2 5.4 69 2.5 W 35 48 19 26 1008.5 1008.6 6.4
23/12:00am 10.9 3.2 5.2 68 2.6 W 35 46 19 25 1008.2 1008.3 6.4
 
Date/Time
CST
Temp
°C
App
Temp
°C
Dew
Point
°C
Rel
Hum
%
Delta-T
°C
Wind Press
QNH
hPa
Press
MSL
hPa
Rain since
9am
mm
Dir  Spd
km/h
Gust
km/h
Spd
kts
Gust
kts
22/11:30pm 10.8 4.0 6.9 77 1.9 W 32 44 17 24 1007.9 1008.0 6.4
22/11:00pm 10.7 3.2 6.3 74 2.1 WNW 35 46 19 25 1007.4 1007.5 6.4
22/10:30pm 11.0 1.3 6.0 71 2.3 W 46 65 25 35 1007.1 1007.2 6.4
22/10:16pm 11.3 3.0 6.2 71 2.4 WNW 39 59 21 32 1006.7 1006.8 6.4
22/10:00pm 11.3 2.9 5.8 69 2.6 WNW 39 52 21 28 1006.4 1006.5 6.4
22/09:42pm 11.0 2.2 5.7 70 2.4 WNW 41 59 22 32 1006.2 1006.3 6.4
22/09:30pm 10.9 2.5 5.4 69 2.5 WNW 39 52 21 28 1006.2 1006.3 6.4
22/09:00pm 10.1 2.1 5.7 74 2.0 WNW 37 50 20 27 1006.0 1006.1 6.4
22/08:30pm 10.7 1.4 5.0 68 2.6 WNW 43 61 23 33 1005.6 1005.7 6.4
22/08:01pm 10.8 1.8 6.2 73 2.1 W 43 61 23 33 1005.3 1005.4 6.4
22/08:00pm 10.9 1.7 6.3 73 2.2 W 44 61 24 33 1005.2 1005.3 6.4
22/07:47pm 11.2 3.4 6.7 74 2.1 WNW 37 56 20 30 1004.9 1005.0 6.4
22/07:30pm 10.9 4.0 6.6 75 2.0 WNW 32 44 17 24 1004.8 1004.9 6.4
22/07:00pm 10.0 3.0 6.9 81 1.5 W 33 46 18 25 1004.5 1004.6 6.4
22/06:44pm 9.7 -0.4 5.7 76 1.8 W 48 70 26 38 1004.3 1004.4 6.4
22/06:40pm 10.4 1.0 5.2 70 2.4 WNW 44 70 24 38 1004.1 1004.2 6.4
22/06:37pm 11.7 3.3 7.4 75 2.1 WNW 41 63 22 34 1004.0 1004.1 6.4
22/06:30pm 11.7 3.7 7.6 76 2.0 WNW 39 54 21 29 1003.8 1003.9 6.4
22/06:00pm 11.4 3.6 8.1 80 1.6 WNW 39 50 21 27 1003.4 1003.5 6.4
22/05:30pm 11.3 3.5 8.3 82 1.5 WNW 39 52 21 28 1002.8 1002.9 6.4
22/05:00pm 12.0 3.8 8.3 78 1.8 WNW 41 54 22 29 1002.3 1002.4 6.0
22/04:30pm 11.9 4.1 8.2 78 1.8 WNW 39 52 21 28 1002.1 1002.2 6.0
22/04:08pm 11.3 4.3 8.5 83 1.4 WNW 35 54 19 29 1002.0 1002.1 6.0
22/04:07pm 11.3 4.3 8.5 83 1.4 WNW 35 54 19 29 1001.9 1002.0 6.0
22/04:00pm 10.7 2.2 8.5 86 1.1 W 43 69 23 37 1001.8 1001.8 6.0
22/03:57pm 10.4 0.4 8.0 85 1.2 W 50 80 27 43 1001.8 1001.8 6.0
22/03:55pm 10.3 0.3 7.7 84 1.2 W 50 80 27 43 1001.8 1001.8 6.0
22/03:52pm 10.1 -0.1 7.0 81 1.5 WNW 50 80 27 43 1002.0 1002.1 6.0
22/03:50pm 10.5 1.0 6.6 77 1.8 WNW 46 80 25 43 1002.1 1002.2 5.8
22/03:49pm 11.2 2.1 6.7 74 2.1 WNW 44 80 24 43 1002.0 1002.1 5.6
22/03:31pm 13.2 6.5 9.8 80 1.7 WNW 35 54 19 29 1001.6 1001.6 5.6
22/03:30pm 13.1 6.4 9.7 80 1.7 WNW 35 48 19 26 1001.5 1001.5 5.6
22/03:18pm 13.1 6.1 9.9 81 1.6 WNW 37 56 20 30 1001.2 1001.2 5.6
22/03:00pm 12.7 4.9 9.9 83 1.4 WNW 41 54 22 29 1001.2 1001.2 5.6
22/02:42pm 12.3 5.6 9.7 84 1.3 NW 35 57 19 31 1001.4 1001.4 5.6
22/02:30pm 12.2 6.8 9.6 84 1.3 NW 28 39 15 21 1001.2 1001.2 5.4
22/02:00pm 12.1 6.8 9.8 86 1.2 NW 28 37 15 20 1001.1 1001.1 5.4
22/01:33pm 11.7 5.1 9.9 89 0.9 WNW 35 48 19 26 1001.2 1001.2 5.4
22/01:30pm 11.8 4.9 10.2 90 0.8 WNW 37 48 20 26 1001.4 1001.4 5.4
22/01:06pm 11.6 4.9 9.7 88 1.0 WNW 35 56 19 30 1001.5 1001.5 4.0
22/01:00pm 11.9 5.7 10.0 88 1.0 NW 33 43 18 23 1001.3 1001.3 3.2
22/12:57pm 12.0 5.4 9.9 87 1.1 NW 35 52 19 28 1001.5 1001.5 2.6
22/12:30pm 14.4 8.5 10.6 78 2.0 NW 32 50 17 27 1001.6 1001.6 1.8
22/12:01pm 12.1 5.4 9.5 84 1.3 WNW 35 54 19 29 1002.2 1002.3 1.4
22/12:00pm 12.2 5.1 9.6 84 1.3 WNW 37 54 20 29 1002.3 1002.4 1.4
22/11:53am 12.5 4.5 9.0 79 1.8 WNW 41 57 22 31 1002.4 1002.5 1.0
22/11:44am 13.5 8.4 10.7 83 1.5 NW 28 50 15 27 1002.7 1002.8 0.8
22/11:30am 13.9 8.1 10.7 81 1.7 NW 32 44 17 24 1002.8 1002.9 0.6
22/11:29am 13.9 8.5 10.9 82 1.6 NW 30 44 16 24 1002.8 1002.9 0.6
22/11:19am 13.6 8.6 11.1 85 1.3 NW 28 43 15 23 1003.1 1003.2 0.6
22/11:00am 14.5 10.1 10.3 76 2.2 NW 24 32 13 17 1003.2 1003.3 0.0
22/10:30am 14.3 9.9 10.3 77 2.1 NW 24 33 13 18 1003.6 1003.7 0.0
22/10:00am 14.0 10.0 10.6 80 1.8 NNW 22 30 12 16 1003.9 1004.0 0.0
22/09:30am 13.7 10.1 10.7 82 1.6 NNW 20 26 11 14 1004.1 1004.2 0.0
22/09:00am 13.6 9.7 10.8 83 1.5 NNW 22 28 12 15 1004.3 1004.4 0.4
22/08:30am 13.6 10.1 11.0 84 1.4 NNW 20 28 11 15 1004.4 1004.5 0.4
22/08:00am 13.4 10.2 11.1 86 1.2 NNW 19 24 10 13 1004.3 1004.4 0.4
22/07:30am 13.5 10.7 11.2 86 1.2 NNW 17 22 9 12 1004.0 1004.1 0.4
22/07:00am 13.5 10.7 11.2 86 1.2 NNW 17 20 9 11 1004.5 1004.6 0.4
22/06:30am 13.8 10.9 11.1 84 1.4 NW 17 22 9 12 1004.2 1004.3 0.4
22/06:00am 14.0 10.8 11.3 84 1.4 NW 19 24 10 13 1003.5 1003.6 0.4
22/05:30am 14.1 10.7 11.4 84 1.4 NW 20 26 11 14 1003.7 1003.8 0.4
22/05:00am 15.0 11.5 11.0 77 2.1 NW 20 28 11 15 1004.0 1004.1 0.2
22/04:30am 15.1 11.8 10.9 76 2.2 NW 19 26 10 14 1003.6 1003.7 0.2
22/04:00am 15.1 12.2 11.1 77 2.1 NW 17 24 9 13 1004.0 1004.1 0.2
22/03:30am 15.2 12.0 11.4 78 2.0 NNW 19 26 10 14 1003.9 1004.0 0.2
22/03:00am 15.1 12.1 11.9 81 1.7 NNW 19 26 10 14 1003.7 1003.8 0.2
22/02:30am 15.1 12.5 11.9 81 1.7 NNW 17 24 9 13 1003.9 1004.0 0.2
22/02:00am 15.7 13.3 11.5 76 2.3 NW 15 17 8 9 1004.3 1004.4 0.0
22/01:30am 15.9 13.5 11.5 75 2.4 WNW 15 20 8 11 1004.6 1004.7 0.0
22/01:00am 16.0 14.1 11.8 76 2.3 WNW 13 19 7 10 1004.9 1005.0 0.0
22/12:30am 16.6 13.6 12.0 74 2.5 W 19 24 10 13 1005.0 1005.1 0.0
22/12:00am 17.9 13.8 12.8 72 2.9 WNW 26 35 14 19 1005.3 1005.4 0.0
 
Date/Time
CST
Temp
°C
App
Temp
°C
Dew
Point
°C
Rel
Hum
%
Delta-T
°C
Wind Press
QNH
hPa
Press
MSL
hPa
Rain since
9am
mm
Dir  Spd
km/h
Gust
km/h
Spd
kts
Gust
kts
21/11:30pm 18.1 13.1 13.4 74 2.7 WNW 32 44 17 24 1004.9 1005.0 0.0
21/11:24pm 18.9 13.9 13.5 71 3.1 NNW 32 44 17 24 1005.0 1005.1 0.0
21/11:00pm 19.9 14.8 13.1 65 3.9 N 32 41 17 22 1004.0 1004.1 0.0
21/10:30pm 19.8 15.2 13.5 67 3.6 N 30 41 16 22 1004.5 1004.6 0.0
21/10:00pm 20.1 16.1 14.0 68 3.5 N 28 37 15 20 1004.8 1004.9 0.0
21/09:30pm 18.6 15.3 14.1 75 2.6 NNE 24 32 13 17 1005.1 1005.2 0.0
21/09:00pm 18.2 15.8 14.5 79 2.1 NNE 20 24 11 13 1005.6 1005.7 0.0
21/08:30pm 18.7 15.9 14.4 76 2.5 NNE 22 28 12 15 1006.2 1006.3 0.0
21/08:00pm 18.6 16.2 14.3 76 2.5 NNE 20 26 11 14 1006.0 1006.1 0.0
21/07:30pm 18.4 16.0 13.9 75 2.6 NNE 19 26 10 14 1006.1 1006.2 0.0
21/07:00pm 19.3 16.4 14.1 72 3.0 NNE 22 28 12 15 1006.1 1006.2 0.0
21/06:30pm 20.2 17.1 14.6 70 3.3 N 24 32 13 17 1006.4 1006.5 0.0
21/06:00pm 19.1 17.0 14.8 76 2.5 NNE 19 24 10 13 1006.5 1006.6 0.0
21/05:30pm 20.3 16.4 14.4 69 3.4 N 28 35 15 19 1006.8 1006.9 0.0
21/05:00pm 20.6 17.6 14.7 69 3.5 N 24 32 13 17 1007.0 1007.1 0.0
21/04:30pm 20.8 17.4 14.7 68 3.6 N 26 35 14 19 1007.4 1007.5 0.0
21/04:00pm 21.3 17.0 14.5 65 4.0 NNW 30 41 16 22 1007.6 1007.7 0.0
21/03:30pm 21.4 17.6 14.8 66 3.9 N 28 35 15 19 1008.2 1008.3 0.0
21/03:00pm 21.6 18.2 14.7 65 4.1 N 26 39 14 21 1008.4 1008.5 0.0
21/02:30pm 22.0 17.2 14.6 63 4.4 NNW 33 44 18 24 1009.4 1009.4 0.0

Latest Capital City Observations: Canberra | Sydney | Melbourne | Brisbane | Adelaide | Perth | Hobart | Darwin

Other Formats:

Comma delimited format used in spreadsheet applications
http://www.bom.gov.au/fwo/IDS60901/IDS60901.95676.axf

JavaScript Object Notation format (JSON) in row-major order
http://www.bom.gov.au/fwo/IDS60901/IDS60901.95676.json